createdAt,value
2019-01-24T05:01:44.743Z,-3.50
2019-01-24T05:04:19.907Z,-3.50
2019-01-24T05:06:55.147Z,-3.50
2019-01-24T05:09:30.154Z,-3.50
2019-01-24T05:12:05.056Z,-3.50
2019-01-24T05:14:40.043Z,-3.60
2019-01-24T06:01:42.226Z,-3.60
2019-01-24T06:04:17.724Z,-3.70
2019-01-24T06:06:52.802Z,-3.60
2019-01-24T06:09:27.858Z,-3.60
2019-01-24T06:11:51.334Z,-3.60
2019-01-24T06:14:13.766Z,-3.60
2019-01-24T07:01:02.298Z,-3.70
2019-01-24T07:03:37.240Z,-3.60
2019-01-24T07:06:12.335Z,-3.70
2019-01-24T07:08:47.483Z,-3.70
2019-01-24T07:11:22.466Z,-3.60
2019-01-24T07:13:57.464Z,-3.60
2019-01-24T08:02:22.691Z,-3.30
2019-01-24T08:04:57.762Z,-3.40
2019-01-24T08:07:32.900Z,-3.30
2019-01-24T08:10:08.050Z,-3.30
2019-01-24T08:12:43.000Z,-3.30
2019-01-24T09:02:51.085Z,-2.30
2019-01-24T09:05:26.251Z,-2.20
2019-01-24T09:08:01.255Z,-2.10
2019-01-24T09:10:36.610Z,-2.00
2019-01-24T09:13:11.662Z,-2.10
2019-01-24T10:01:15.473Z,-1.20
2019-01-24T10:03:50.547Z,-1.00
2019-01-24T10:06:25.579Z,-0.80
2019-01-24T10:09:00.683Z,-0.60
2019-01-24T10:11:35.479Z,-0.60
2019-01-24T10:14:10.475Z,-0.70
2019-01-24T10:46:07.715Z,-0.30
2019-01-24T10:48:30.192Z,-0.10
2019-01-24T10:50:52.646Z,0.00
2019-01-24T10:53:15.090Z,-0.20
2019-01-24T10:55:37.534Z,0.00
2019-01-24T10:58:01.482Z,0.10
2019-01-24T11:00:31.570Z,0.10
2019-01-24T11:02:54.237Z,0.20
2019-01-24T11:05:16.935Z,0.30
2019-01-24T11:07:40.696Z,0.30
2019-01-24T11:10:04.959Z,0.00
2019-01-24T11:12:28.508Z,-0.10
2019-01-24T11:14:50.993Z,-0.10
2019-01-24T11:40:16.180Z,-0.70
2019-01-24T11:42:39.559Z,-0.80
2019-01-24T11:45:01.988Z,-0.80
2019-01-24T11:47:24.539Z,-0.70
2019-01-24T11:49:47.134Z,-0.70
2019-01-24T11:52:09.871Z,-0.80
2019-01-24T11:54:32.625Z,-0.80
2019-01-24T11:56:55.102Z,-0.80
2019-01-24T11:59:17.594Z,-0.70
2019-01-24T12:01:40.121Z,-0.60
2019-01-24T12:04:02.673Z,-0.50
2019-01-24T12:06:25.436Z,-0.50
2019-01-24T12:08:48.184Z,-0.60
2019-01-24T12:11:10.882Z,-0.60
2019-01-24T12:13:33.334Z,-0.60
2019-01-24T13:00:40.189Z,-1.10
2019-01-24T13:03:03.053Z,-1.00
2019-01-24T13:05:25.606Z,-0.90
2019-01-24T13:07:48.140Z,-0.90
2019-01-24T13:10:13.343Z,-0.90
2019-01-24T13:12:36.065Z,-0.80
2019-01-24T13:14:58.600Z,-1.00
2019-01-24T14:01:11.344Z,-0.40
2019-01-24T14:03:43.222Z,-0.60
2019-01-24T14:06:05.679Z,-0.60
2019-01-24T14:08:28.295Z,-0.60
2019-01-24T14:10:50.879Z,-0.60
2019-01-24T14:13:13.408Z,-0.60
2019-01-24T15:01:57.574Z,-1.80
2019-01-24T15:04:20.038Z,-1.90
2019-01-24T15:06:43.120Z,-1.90
2019-01-24T15:09:07.718Z,-1.80
2019-01-24T15:11:31.951Z,-1.90
2019-01-24T15:13:54.492Z,-2.00
2019-01-24T16:00:42.241Z,-2.60
2019-01-24T16:03:05.036Z,-2.70
2019-01-24T16:05:27.687Z,-2.70
2019-01-24T16:07:50.143Z,-2.60
2019-01-24T16:10:13.962Z,-2.70
2019-01-24T16:12:36.399Z,-2.70
2019-01-24T16:14:58.873Z,-2.70
2019-01-24T17:00:16.407Z,-2.80
2019-01-24T17:02:39.056Z,-2.80
2019-01-24T17:05:01.491Z,-2.80
2019-01-24T17:07:24.170Z,-2.80
2019-01-24T17:09:46.730Z,-2.80
2019-01-24T17:12:09.235Z,-2.80
2019-01-24T17:14:31.840Z,-2.80
2019-01-24T18:01:04.897Z,-3.10
2019-01-24T18:03:28.566Z,-3.00
2019-01-24T18:05:51.238Z,-3.10
2019-01-24T18:08:13.743Z,-3.00
2019-01-24T18:10:36.192Z,-3.00
2019-01-24T18:12:58.729Z,-3.10
2019-01-24T19:02:16.222Z,-3.10
2019-01-24T19:04:38.812Z,-3.10
2019-01-24T19:07:01.519Z,-3.10
2019-01-24T19:09:24.196Z,-3.10
2019-01-24T19:11:46.819Z,-3.10
2019-01-24T19:14:09.626Z,-3.10
2019-01-24T20:00:27.578Z,-3.30
2019-01-24T20:02:50.316Z,-3.30
2019-01-24T20:05:14.711Z,-3.30
2019-01-24T20:07:37.336Z,-3.30
2019-01-24T20:10:01.172Z,-3.30
2019-01-24T20:12:25.735Z,-3.20
2019-01-24T20:14:48.275Z,-3.30
2019-01-24T21:02:12.363Z,-3.20
2019-01-24T21:04:34.877Z,-3.20
2019-01-24T21:06:57.518Z,-3.20
2019-01-24T21:09:20.055Z,-3.20
2019-01-24T21:11:42.499Z,-3.20
2019-01-24T21:14:05.519Z,-3.20
